»·PEaware :: N448KM KEMT-KTOA

N448KM :: KEMT-KTOA

FLIGHT INFORMATION

Flight Status: Arrived
Operator: Privately registered:
United States
More flights under this callsign
Pilot: Brian D. (22974)
Aircraft: PIPER PA-28R-201 ARROW
(P28R)
More flights by this aircraft type
Origin: KEMT El Monte
United States
Destination: KTOA Zamperini
United States
More flights between these airports :: More routes between these airports
Route: +
File this flight plan on PilotEdge
Remarks: Ferrying to CAT 10 start practicing movement through bravo airspace before hand.
Altitude:
(Current/Filed)
3,000ft
Speed:
(Current/Filed)
120kts
Departed: 03-Aug-19 02:54 PM
Arrived: 03-Aug-19 03:26 PM
Distance/Time
Traveled:
23nm/0:32
Distance/Time
To Go:
Arrived

Flight Plot

Page will automatically refresh every two minutes.

Flight plan parsing failed; only flown route is shown


Map Options




Map Legend


Flown Route
Filed Route
Departure Airport
Arrival Airport
Navaid (VOR, NDB)
Fix

Horizontal Profiles

Position Reports

Time Latitude Longitude Heading Altitude Ground
Speed
03-Aug-19 14:30 34.082725 -118.035633 205 298ft 0kts
03-Aug-19 14:31 34.082725 -118.035633 205 298ft 0kts
03-Aug-19 14:32 34.082725 -118.035633 205 298ft 0kts
03-Aug-19 14:33 34.082725 -118.035633 205 298ft 0kts
03-Aug-19 14:34 34.082725 -118.035633 205 298ft 0kts
03-Aug-19 14:35 34.082725 -118.035633 205 298ft 0kts
03-Aug-19 14:36 34.082709 -118.035642 205 298ft 0kts
03-Aug-19 14:37 34.082709 -118.035642 205 298ft 0kts
03-Aug-19 14:38 34.082709 -118.035642 205 298ft 0kts
03-Aug-19 14:39 34.082709 -118.035642 205 298ft 0kts
03-Aug-19 14:40 34.082709 -118.035642 205 298ft 0kts
03-Aug-19 14:41 34.082709 -118.035642 205 298ft 0kts
03-Aug-19 14:42 34.082709 -118.035642 205 298ft 0kts
03-Aug-19 14:43 34.082709 -118.035642 205 298ft 0kts
03-Aug-19 14:44 34.082709 -118.035642 205 298ft 0kts
03-Aug-19 14:45 34.082709 -118.035642 205 298ft 0kts
03-Aug-19 14:46 34.082709 -118.035642 205 298ft 0kts
03-Aug-19 14:47 34.082709 -118.035642 205 298ft 0kts
03-Aug-19 14:48 34.082705 -118.035645 205 298ft 0kts
03-Aug-19 14:49 34.084494 -118.035075 25 298ft 16kts
03-Aug-19 14:50 34.088294 -118.032904 25 298ft 17kts
03-Aug-19 14:51 34.090721 -118.031615 318 298ft 0kts
03-Aug-19 14:52 34.090721 -118.031615 318 298ft 0kts
03-Aug-19 14:53 34.087116 -118.034194 205 298ft 61kts
03-Aug-19 14:54 34.072036 -118.043783 232 994ft 95kts
03-Aug-19 14:55 34.082780 -118.060831 331 1712ft 93kts
03-Aug-19 14:56 34.104674 -118.066417 0 2129ft 101kts
03-Aug-19 14:57 34.101419 -118.079325 189 2303ft 110kts
03-Aug-19 14:59 34.080615 -118.080572 180 2410ft 118kts
03-Aug-19 15:00 34.057655 -118.073923 148 2406ft 123kts
03-Aug-19 15:01 34.040493 -118.055426 134 2406ft 123kts
03-Aug-19 15:02 34.027715 -118.037283 129 2406ft 123kts
03-Aug-19 15:03 34.011401 -118.013574 129 2406ft 124kts
03-Aug-19 15:04 33.993564 -117.988214 139 2403ft 125kts
03-Aug-19 15:05 33.970305 -117.968295 144 2761ft 127kts
03-Aug-19 15:06 33.948723 -117.951201 158 3429ft 122kts
03-Aug-19 15:07 33.925920 -117.945461 173 3417ft 119kts
03-Aug-19 15:08 33.906367 -117.944800 182 3417ft 118kts
03-Aug-19 15:09 33.888946 -117.946097 186 3416ft 118kts
03-Aug-19 15:10 33.870173 -117.951494 200 3415ft 118kts
03-Aug-19 15:11 33.854110 -117.969303 235 3417ft 118kts
03-Aug-19 15:12 33.843783 -117.997086 253 3417ft 118kts
03-Aug-19 15:13 33.838666 -118.026066 261 3417ft 118kts
03-Aug-19 15:14 33.836403 -118.055623 266 3417ft 118kts
03-Aug-19 15:14 33.835075 -118.080177 266 3417ft 118kts
03-Aug-19 15:16 33.833528 -118.109589 266 3414ft 110kts
03-Aug-19 15:17 33.832248 -118.134240 266 3416ft 95kts
03-Aug-19 15:17 33.831247 -118.153945 266 3416ft 91kts
03-Aug-19 15:19 33.829788 -118.183562 266 3418ft 101kts
03-Aug-19 15:20 33.828546 -118.211885 269 3331ft 105kts
03-Aug-19 15:20 33.829304 -118.236762 278 2972ft 111kts
03-Aug-19 15:22 33.814891 -118.267104 218 2482ft 108kts
03-Aug-19 15:23 33.791298 -118.284723 210 1887ft 119kts
03-Aug-19 15:23 33.786870 -118.311465 289 1054ft 101kts
03-Aug-19 15:24 33.797789 -118.330123 309 246ft 71kts
03-Aug-19 15:25 33.804801 -118.340736 305 106ft 16kts
03-Aug-19 15:26 33.805935 -118.344050 289 106ft 8kts
03-Aug-19 15:27 33.804993 -118.345885 221 106ft 9kts
03-Aug-19 15:28 33.806850 -118.347516 359 106ft 13kts
03-Aug-19 15:29 33.807443 -118.347696 114 106ft 0kts
03-Aug-19 15:30 33.807443 -118.347696 114 106ft 0kts
03-Aug-19 15:31 33.807443 -118.347696 114 106ft 0kts
03-Aug-19 15:32 33.807443 -118.347696 114 106ft 0kts
03-Aug-19 15:33 33.807443 -118.347696 114 106ft 0kts
03-Aug-19 15:34 33.807443 -118.347696 114 106ft 0kts
03-Aug-19 15:35 33.807443 -118.347696 114 106ft 0kts
03-Aug-19 15:36 33.807443 -118.347696 114 106ft 0kts
03-Aug-19 15:37 33.807443 -118.347696 114 106ft 0kts
03-Aug-19 15:38 33.807443 -118.347696 114 106ft 0kts
03-Aug-19 15:39 33.807443 -118.347696 114 106ft 0kts

Navigation Log

Ident Type
Flight plan parsing failed, navigation log unavailable